Terminal Aerodrome Forecast
Issued by NWS

Home | Current Version | Previous Version | Text Only | Print | Product List | Glossary On
Versions: 1 2 3 4 5 6 7 8 9 10 11 12 13 14
000
FTUS46 KMFR 021746
TAFLMT
TAF
KLMT 021746Z 0218/0318 VRB04KT 2SM FU SCT020 BKN120
     FM030000 31011KT 6SM FU VCTS BKN060CB
     FM030500 VRB03KT 4SM FU VCTS BKN060CB
     FM030900 VRB03KT 4SM FU SCT020 SCT060=

USA.gov is the U.S. government's official web portal to all federal, state and local government web resources and services.